Time;durP1;ratioP1;P1;durP2;ratioP2;P2;SDS_P1;SDS_P2;PMS_P1;PMS_P2;Temp;Humidity;BMP_temperature;BMP_pressure;BME280_temperature;BME280_humidity;BME280_pressure;Samples;Min_cycle;Max_cycle;Signal;HPM_P1;HPM_P2
2023/02/05 00:02:08;;;;;;;18.23;13.27;;;;;;;0.24;100.00;102391.69;5080524;28;20500;-65
2023/02/05 00:04:36;;;;;;;16.13;13.73;;;;;;;0.31;100.00;102375.81;5080643;28;20439;-65
2023/02/05 00:07:06;;;;;;;16.33;12.57;;;;;;;0.55;100.00;102381.56;5080132;28;20480;-66
2023/02/05 00:09:33;;;;;;;17.47;12.97;;;;;;;0.53;100.00;102384.22;5081088;28;20511;-65
2023/02/05 00:12:10;;;;;;;18.70;15.07;;;;;;;0.51;100.00;102378.13;5079760;28;20500;-65
2023/02/05 00:14:37;;;;;;;15.13;12.30;;;;;;;0.52;100.00;102371.09;5080777;28;21054;-65
2023/02/05 00:17:04;;;;;;;21.67;15.10;;;;;;;0.39;100.00;102366.91;5080371;28;20570;-65
2023/02/05 00:19:30;;;;;;;20.37;14.70;;;;;;;0.36;100.00;102358.19;5081067;28;20912;-65
2023/02/05 00:21:58;;;;;;;17.63;12.70;;;;;;;0.56;100.00;102359.63;5080390;28;20480;-65
2023/02/05 00:24:25;;;;;;;18.10;13.27;;;;;;;0.51;100.00;102361.47;5081082;28;20445;-65
2023/02/05 00:26:51;;;;;;;17.60;13.03;;;;;;;0.58;100.00;102349.94;5080041;28;20507;-66
2023/02/05 00:29:18;;;;;;;15.60;13.17;;;;;;;0.60;100.00;102344.66;5079923;28;20444;-66
2023/02/05 00:31:48;;;;;;;20.37;12.37;;;;;;;0.62;100.00;102349.00;5079898;28;20516;-66
2023/02/05 00:34:15;;;;;;;14.50;12.17;;;;;;;0.68;100.00;102343.63;5080844;28;20476;-65
2023/02/05 00:36:41;;;;;;;16.57;12.63;;;;;;;0.71;100.00;102334.81;5080433;28;20476;-65
2023/02/05 00:39:10;;;;;;;16.57;13.30;;;;;;;0.69;100.00;102332.19;5080636;28;20487;-65
2023/02/05 00:41:37;;;;;;;14.47;12.13;;;;;;;0.63;100.00;102320.94;5079021;28;20488;-65
2023/02/05 00:44:04;;;;;;;19.10;13.80;;;;;;;0.56;100.00;102318.38;5080346;28;20518;-65
2023/02/05 00:46:30;;;;;;;21.50;13.07;;;;;;;0.47;100.00;102315.00;5079845;28;20488;-65
2023/02/05 00:48:57;;;;;;;15.63;11.93;;;;;;;0.30;100.00;102305.66;5079245;28;20515;-65
2023/02/05 00:51:24;;;;;;;15.80;12.00;;;;;;;0.15;100.00;102296.22;5079845;28;20480;-66
2023/02/05 00:53:50;;;;;;;17.43;14.17;;;;;;;0.17;100.00;102309.34;5080304;28;20476;-65
2023/02/05 00:56:18;;;;;;;14.70;12.40;;;;;;;0.19;100.00;102302.28;5079060;28;20476;-66
2023/02/05 00:58:46;;;;;;;16.63;13.03;;;;;;;0.19;100.00;102291.78;5061094;28;20491;-64
2023/02/05 01:01:13;;;;;;;22.80;15.03;;;;;;;0.18;100.00;102285.66;5080064;28;20468;-64
2023/02/05 01:03:39;;;;;;;18.97;13.07;;;;;;;0.11;100.00;102280.53;5080220;28;20476;-64
2023/02/05 01:06:07;;;;;;;19.00;13.33;;;;;;;0.00;100.00;102283.31;5079828;28;20511;-65
2023/02/05 01:08:33;;;;;;;15.10;12.30;;;;;;;0.04;100.00;102271.00;5080137;28;20488;-65
2023/02/05 01:11:00;;;;;;;15.67;12.67;;;;;;;-0.12;100.00;102270.31;5078969;28;20499;-65
2023/02/05 01:13:28;;;;;;;19.50;12.80;;;;;;;-0.18;100.00;102284.44;5080658;28;20499;-66
2023/02/05 01:15:55;;;;;;;16.23;13.43;;;;;;;-0.30;100.00;102279.34;5082073;28;20507;-65
2023/02/05 01:18:21;;;;;;;17.27;13.30;;;;;;;-0.38;100.00;102279.47;5083677;28;20479;-65
2023/02/05 01:20:48;;;;;;;15.13;13.20;;;;;;;-0.42;100.00;102273.38;5083638;28;20483;-65
2023/02/05 01:23:14;;;;;;;14.53;13.00;;;;;;;-0.34;100.00;102270.63;5083863;28;20460;-65
2023/02/05 01:25:41;;;;;;;14.83;13.27;;;;;;;-0.40;100.00;102254.94;5082933;28;20500;-65
2023/02/05 01:28:08;;;;;;;17.20;12.53;;;;;;;-0.50;100.00;102246.34;5083298;28;20453;-65
2023/02/05 01:30:36;;;;;;;18.60;13.10;;;;;;;-0.54;100.00;102241.13;5082558;28;20502;-65
2023/02/05 01:33:03;;;;;;;13.83;12.00;;;;;;;-0.49;100.00;102237.53;5083875;28;20428;-65
2023/02/05 01:35:29;;;;;;;14.37;12.03;;;;;;;-0.28;100.00;102241.66;5083119;28;20475;-66
2023/02/05 01:37:56;;;;;;;16.13;13.13;;;;;;;-0.17;100.00;102227.47;5083436;28;21101;-67
2023/02/05 01:40:23;;;;;;;18.00;12.43;;;;;;;-0.22;100.00;102245.94;5082621;28;20488;-66
2023/02/05 01:42:49;;;;;;;15.27;12.63;;;;;;;-0.06;100.00;102244.81;5083554;28;20491;-67
2023/02/05 01:45:49;;;;;;;17.40;12.03;;;;;;;0.04;100.00;102249.97;5082857;28;20476;-66
2023/02/05 01:48:18;;;;;;;13.90;12.00;;;;;;;0.23;100.00;102243.50;5083333;28;20460;-66
2023/02/05 01:50:48;;;;;;;16.57;13.07;;;;;;;0.37;100.00;102254.66;5082230;28;20500;-66
2023/02/05 01:53:17;;;;;;;15.10;11.77;;;;;;;0.55;100.00;102253.47;5080490;28;20918;-66
2023/02/05 01:55:47;;;;;;;16.20;12.10;;;;;;;0.58;100.00;102252.56;5081806;28;20559;-66
2023/02/05 01:58:14;;;;;;;14.47;12.00;;;;;;;0.75;100.00;102253.13;5082610;28;20452;-66
2023/02/05 02:00:43;;;;;;;15.10;11.37;;;;;;;0.75;100.00;102250.47;5082104;28;20472;-65
2023/02/05 02:03:11;;;;;;;15.10;12.00;;;;;;;0.83;100.00;102249.47;5082876;28;20473;-66
2023/02/05 02:05:37;;;;;;;16.10;12.50;;;;;;;0.99;100.00;102236.88;5082495;28;20479;-66
2023/02/05 02:08:04;;;;;;;13.37;11.40;;;;;;;1.07;100.00;102229.69;5082326;28;20452;-66
2023/02/05 02:10:32;;;;;;;13.13;11.23;;;;;;;1.05;100.00;102221.81;5081541;28;20536;-66
2023/02/05 02:12:59;;;;;;;16.60;11.90;;;;;;;0.68;100.00;102229.59;5082835;28;20880;-66
2023/02/05 02:15:26;;;;;;;13.53;11.20;;;;;;;0.58;100.00;102226.22;5082584;28;20534;-65
2023/02/05 02:18:24;;;;;;;12.50;10.90;;;;;;;0.81;100.00;102222.31;5082499;28;20467;-66
2023/02/05 02:20:48;;;;;;;15.07;10.90;;;;;;;0.94;100.00;102215.91;5081736;28;20470;-66
2023/02/05 02:23:22;;;;;;;11.50;10.30;;;;;;;1.01;100.00;102204.34;5072477;28;20922;-66
2023/02/05 02:26:21;;;;;;;13.87;11.03;;;;;;;0.75;100.00;102207.50;5081551;28;20490;-66
2023/02/05 02:28:51;;;;;;;14.40;10.40;;;;;;;0.98;100.00;102219.34;5080693;28;20457;-66
2023/02/05 02:31:22;;;;;;;14.90;10.00;;;;;;;1.09;100.00;102220.88;5082099;28;20579;-66
2023/02/05 02:33:54;;;;;;;15.70;9.93;;;;;;;1.18;100.00;102218.94;5082174;28;20467;-66
2023/02/05 02:36:25;;;;;;;10.93;9.70;;;;;;;1.26;100.00;102227.56;5082207;28;20515;-66
2023/02/05 02:38:56;;;;;;;13.90;10.23;;;;;;;1.26;100.00;102219.66;5081940;28;20456;-65
2023/02/05 02:41:29;;;;;;;12.03;10.07;;;;;;;1.30;100.00;102218.66;5081304;28;20480;-65
2023/02/05 02:43:58;;;;;;;12.03;9.70;;;;;;;1.34;100.00;102230.91;5081848;28;20492;-65
2023/02/05 02:46:28;;;;;;;11.57;9.80;;;;;;;1.40;100.00;102224.63;5081811;28;20503;-64
2023/02/05 02:48:57;;;;;;;11.67;9.83;;;;;;;1.48;100.00;102220.06;5081992;28;20564;-64
2023/02/05 02:51:25;;;;;;;10.40;9.30;;;;;;;1.48;100.00;102218.28;5081494;28;20523;-65
2023/02/05 02:53:56;;;;;;;11.07;9.90;;;;;;;1.55;100.00;102215.53;5081984;28;20540;-65
2023/02/05 02:56:24;;;;;;;10.80;9.60;;;;;;;1.64;100.00;102210.03;5081265;28;20514;-65
2023/02/05 02:58:53;;;;;;;11.57;9.50;;;;;;;1.50;100.00;102203.28;5080789;28;20480;-65
2023/02/05 03:01:24;;;;;;;12.90;8.97;;;;;;;1.49;100.00;102203.31;5081855;28;20500;-65
2023/02/05 03:03:54;;;;;;;12.23;10.03;;;;;;;1.56;100.00;102199.66;5082120;28;20432;-65
2023/02/05 03:06:22;;;;;;;13.33;9.70;;;;;;;1.35;100.00;102211.53;5081372;28;20488;-65
2023/02/05 03:08:52;;;;;;;12.07;10.07;;;;;;;1.36;100.00;102210.66;5081102;28;20480;-65
2023/02/05 03:11:19;;;;;;;12.03;9.80;;;;;;;1.18;100.00;102201.38;5080717;28;20475;-65
2023/02/05 03:13:46;;;;;;;12.30;10.07;;;;;;;1.19;100.00;102202.25;5082165;28;20457;-65
2023/02/05 03:16:15;;;;;;;11.13;9.70;;;;;;;1.33;100.00;102199.31;5081146;28;20511;-64
2023/02/05 03:18:43;;;;;;;10.77;9.60;;;;;;;1.10;100.00;102198.88;5081552;28;20472;-65
2023/02/05 03:21:13;;;;;;;12.70;10.40;;;;;;;1.18;100.00;102196.13;5080632;28;20500;-64
2023/02/05 03:23:40;;;;;;;12.70;9.53;;;;;;;1.12;100.00;102188.31;5071057;28;20815;-65
2023/02/05 03:26:22;;;;;;;11.47;9.77;;;;;;;1.16;100.00;102181.22;5080937;28;20551;-65
2023/02/05 03:28:48;;;;;;;11.03;9.63;;;;;;;1.11;100.00;102179.56;5081179;28;20484;-65
2023/02/05 03:31:19;;;;;;;10.47;9.37;;;;;;;0.73;100.00;102173.31;5081007;28;20511;-65
2023/02/05 03:33:55;;;;;;;10.63;9.07;;;;;;;0.67;100.00;102173.41;5081602;28;20472;-65
2023/02/05 03:36:26;;;;;;;13.23;10.40;;;;;;;0.62;100.00;102164.72;5081011;28;20507;-65
2023/02/05 03:39:04;;;;;;;11.57;9.37;;;;;;;0.62;100.00;102164.72;5080315;28;20520;-65
2023/02/05 03:44:27;;;;;;;12.93;9.20;;;;;;;0.86;100.00;102167.78;5076668;28;20472;-65
2023/02/05 03:46:59;;;;;;;10.40;9.30;;;;;;;0.70;100.00;102160.19;5060605;28;20480;-64
2023/02/05 03:49:39;;;;;;;12.17;9.53;;;;;;;0.58;100.00;102162.22;5062675;28;20455;-64
2023/02/05 03:52:10;;;;;;;11.33;9.27;;;;;;;0.55;100.00;102171.00;5064845;28;20501;-64
2023/02/05 03:54:41;;;;;;;12.23;9.90;;;;;;;1.17;100.00;102185.59;5060701;28;20469;-64
2023/02/05 03:57:11;;;;;;;14.00;9.80;;;;;;;1.42;100.00;102186.78;5061137;28;20546;-64
2023/02/05 03:59:39;;;;;;;10.70;9.30;;;;;;;1.00;100.00;102183.31;5070811;28;20456;-65
2023/02/05 04:02:06;;;;;;;13.63;10.13;;;;;;;0.90;100.00;102182.63;5073846;28;20483;-65
2023/02/05 04:04:34;;;;;;;10.37;9.03;;;;;;;1.21;100.00;102188.13;5072138;28;20465;-65
2023/02/05 04:07:02;;;;;;;15.03;10.30;;;;;;;1.12;100.00;102186.53;5059932;28;20536;-65
2023/02/05 04:09:29;;;;;;;10.60;9.10;;;;;;;1.35;100.00;102187.81;5060815;28;20464;-65
2023/02/05 04:11:55;;;;;;;13.47;9.23;;;;;;;1.43;100.00;102179.75;5059960;28;20540;-65
2023/02/05 04:14:22;;;;;;;9.87;8.90;;;;;;;1.47;100.00;102178.78;5060730;28;20457;-66
2023/02/05 04:16:48;;;;;;;11.23;9.13;;;;;;;1.47;100.00;102182.28;5060483;28;20481;-65
2023/02/05 04:19:15;;;;;;;12.83;9.57;;;;;;;1.57;100.00;102175.03;5060818;28;20489;-66
2023/02/05 04:21:43;;;;;;;10.10;8.73;;;;;;;1.70;100.00;102178.25;5060257;28;21052;-67
2023/02/05 04:24:10;;;;;;;9.87;8.87;;;;;;;1.77;100.00;102171.94;5060985;28;20457;-65
2023/02/05 04:26:37;;;;;;;11.20;9.57;;;;;;;1.87;100.00;102175.22;5059178;28;20501;-65
2023/02/05 04:29:04;;;;;;;12.23;8.57;;;;;;;1.16;100.00;102174.16;5060056;28;20540;-65
2023/02/05 04:31:30;;;;;;;12.53;9.43;;;;;;;1.09;100.00;102178.72;5060455;28;20508;-65
2023/02/05 04:33:58;;;;;;;9.50;7.90;;;;;;;1.06;100.00;102178.78;5060890;28;20459;-65
2023/02/05 04:36:24;;;;;;;10.37;8.67;;;;;;;1.02;100.00;102173.59;5059714;28;20505;-65
2023/02/05 04:38:52;;;;;;;9.93;8.80;;;;;;;1.31;100.00;102173.00;5060807;28;20481;-65
2023/02/05 04:41:19;;;;;;;12.40;9.87;;;;;;;1.32;100.00;102177.38;5059872;28;20505;-65
2023/02/05 04:43:45;;;;;;;10.80;9.60;;;;;;;1.30;100.00;102156.31;5074670;28;20508;-65
2023/02/05 04:46:12;;;;;;;9.53;8.53;;;;;;;1.12;100.00;102157.56;5079960;28;20496;-65
2023/02/05 04:48:39;;;;;;;11.87;9.53;;;;;;;1.21;100.00;102158.28;5080341;28;20505;-65
2023/02/05 04:51:07;;;;;;;9.67;8.67;;;;;;;1.39;100.00;102151.72;5082599;28;20499;-65
2023/02/05 04:53:33;;;;;;;10.87;8.43;;;;;;;1.23;100.00;102160.00;5085188;28;20428;-65
2023/02/05 04:56:06;;;;;;;13.07;8.60;;;;;;;1.00;100.00;102149.94;5083449;28;20515;-65
2023/02/05 04:58:33;;;;;;;13.33;8.43;;;;;;;1.02;100.00;102150.75;5082997;28;20502;-65
2023/02/05 05:00:59;;;;;;;10.87;9.00;;;;;;;0.93;100.00;102148.31;5083908;28;21170;-66
2023/02/05 05:03:26;;;;;;;11.33;9.60;;;;;;;0.91;100.00;102155.41;5083869;28;20443;-66
2023/02/05 05:05:53;;;;;;;12.53;9.57;;;;;;;0.94;100.00;102144.81;5083202;28;20487;-66
2023/02/05 05:08:19;;;;;;;12.47;8.87;;;;;;;0.99;100.00;102148.22;5083318;28;20456;-66
2023/02/05 05:10:46;;;;;;;14.87;9.17;;;;;;;1.02;100.00;102147.25;5082491;28;20551;-66
2023/02/05 05:13:14;;;;;;;12.60;9.40;;;;;;;1.16;100.00;102155.72;5083556;28;20472;-66
2023/02/05 05:15:40;;;;;;;16.03;9.50;;;;;;;1.15;100.00;102148.75;5083269;28;20515;-65
2023/02/05 05:18:07;;;;;;;10.57;8.40;;;;;;;1.43;100.00;102141.09;5084043;28;20475;-66
2023/02/05 05:20:34;;;;;;;10.10;8.77;;;;;;;1.21;100.00;102135.41;5083402;28;20460;-66
2023/02/05 05:23:01;;;;;;;13.13;9.53;;;;;;;1.06;100.00;102131.38;5084022;28;20475;-65
2023/02/05 05:25:27;;;;;;;10.40;9.30;;;;;;;1.09;100.00;102114.63;5082639;28;20559;-66
2023/02/05 05:27:54;;;;;;;11.97;9.60;;;;;;;1.05;100.00;102105.94;5083229;28;20486;-65
2023/02/05 05:30:22;;;;;;;14.13;8.97;;;;;;;1.10;100.00;102111.97;5083354;28;20531;-65
2023/02/05 05:32:49;;;;;;;17.23;11.57;;;;;;;1.06;100.00;102109.41;5084239;28;20436;-65
2023/02/05 05:35:15;;;;;;;12.50;10.43;;;;;;;1.12;100.00;102114.56;5082999;28;20469;-65
2023/02/05 05:37:42;;;;;;;12.40;9.43;;;;;;;1.40;100.00;102116.56;5083427;28;20528;-65
2023/02/05 05:45:41;;;;;;;12.57;10.30;;;;;;;1.40;100.00;102130.59;5083152;28;21111;-65
2023/02/05 05:48:08;;;;;;;17.10;9.47;;;;;;;1.25;100.00;102123.94;5083583;28;20461;-65
2023/02/05 05:50:35;;;;;;;12.57;9.60;;;;;;;1.32;100.00;102122.03;5083244;28;20500;-65
2023/02/05 05:53:01;;;;;;;13.10;10.20;;;;;;;1.59;100.00;102130.19;5083725;28;20472;-65
2023/02/05 05:55:28;;;;;;;13.53;9.43;;;;;;;1.77;100.00;102121.84;5082442;28;20996;-65
2023/02/05 05:57:54;;;;;;;13.03;9.93;;;;;;;1.80;100.00;102123.53;5082405;28;20487;-65
2023/02/05 06:00:21;;;;;;;14.30;11.40;;;;;;;1.82;100.00;102103.25;5082823;28;20456;-65
2023/02/05 06:02:49;;;;;;;11.47;10.07;;;;;;;1.82;100.00;102096.22;5082656;28;20457;-65
2023/02/05 06:05:16;;;;;;;11.37;9.87;;;;;;;1.72;100.00;102088.56;5082522;28;20476;-65
2023/02/05 06:07:42;;;;;;;11.77;10.20;;;;;;;1.81;100.00;102086.56;5083022;28;20448;-66
2023/02/05 06:10:09;;;;;;;12.33;8.63;;;;;;;1.75;100.00;102094.63;5082435;28;20440;-64
2023/02/05 06:12:36;;;;;;;13.37;10.00;;;;;;;1.99;100.00;102076.44;5083018;28;20484;-65
2023/02/05 06:15:03;;;;;;;14.43;9.90;;;;;;;2.07;100.00;102082.38;5082268;28;20511;-65
2023/02/05 06:17:30;;;;;;;15.20;10.30;;;;;;;2.25;100.00;102084.50;5082227;28;20476;-65
2023/02/05 06:19:58;;;;;;;11.60;9.47;;;;;;;2.14;100.00;102077.81;5082200;28;20452;-65
2023/02/05 06:22:24;;;;;;;12.47;8.60;;;;;;;2.23;100.00;102077.56;5082552;28;20496;-65
2023/02/05 06:24:51;;;;;;;11.37;9.03;;;;;;;2.40;100.00;102080.59;5082972;28;20449;-65
2023/02/05 06:27:18;;;;;;;11.43;9.70;;;;;;;2.44;100.00;102074.31;5081342;28;21180;-66
2023/02/05 06:29:44;;;;;;;11.00;8.93;;;;;;;2.45;100.00;102072.56;5082760;28;20487;-66
2023/02/05 06:32:11;;;;;;;14.83;10.23;;;;;;;2.37;100.00;102080.69;5081012;28;20480;-66
2023/02/05 06:34:37;;;;;;;17.27;10.17;;;;;;;2.26;100.00;102070.41;5082714;28;20513;-65
2023/02/05 06:37:06;;;;;;;12.67;9.17;;;;;;;2.17;100.00;102075.06;5082074;28;20537;-66
2023/02/05 06:39:32;;;;;;;10.17;8.97;;;;;;;2.35;100.00;102077.22;5081860;28;20460;-67
2023/02/05 06:41:59;;;;;;;13.77;9.47;;;;;;;1.74;100.00;102078.84;5080234;28;21099;-65
2023/02/05 06:44:26;;;;;;;14.00;11.33;;;;;;;1.59;100.00;102077.47;5078158;28;20493;-64
2023/02/05 06:46:52;;;;;;;16.13;13.70;;;;;;;2.02;100.00;102079.00;5087637;28;20468;-65
2023/02/05 06:49:19;;;;;;;11.27;10.07;;;;;;;2.44;100.00;102078.72;5081675;28;20472;-65
2023/02/05 06:51:46;;;;;;;20.70;17.63;;;;;;;2.53;100.00;102083.75;5072143;28;20552;-65
2023/02/05 06:54:14;;;;;;;19.43;10.43;;;;;;;1.93;100.00;102079.22;5079903;28;20452;-65
2023/02/05 06:56:40;;;;;;;16.70;10.77;;;;;;;1.81;100.00;102077.78;5080011;28;20514;-65
2023/02/05 06:59:07;;;;;;;11.00;9.73;;;;;;;1.66;100.00;102063.22;5074845;28;21068;-66
2023/02/05 07:01:34;;;;;;;14.37;9.77;;;;;;;1.75;100.00;102062.97;5079856;28;20936;-71
2023/02/05 07:04:00;;;;;;;12.60;9.80;;;;;;;1.69;100.00;102056.09;5081204;28;20468;-69
2023/02/05 07:06:27;;;;;;;14.23;10.20;;;;;;;1.87;100.00;102051.25;5082748;28;20461;-72
2023/02/05 07:08:55;;;;;;;12.07;9.20;;;;;;;1.80;100.00;102053.16;5080608;28;20444;-70
2023/02/05 07:11:26;;;;;;;12.67;9.47;;;;;;;1.92;100.00;102044.09;5079568;28;20468;-72
2023/02/05 07:13:52;;;;;;;30.33;19.23;;;;;;;2.00;100.00;102055.31;5077428;28;20468;-71
2023/02/05 07:16:19;;;;;;;23.20;16.30;;;;;;;2.06;100.00;102051.63;5079433;28;20548;-70
2023/02/05 07:18:46;;;;;;;18.00;11.40;;;;;;;2.17;100.00;102048.69;5079144;28;20445;-70
2023/02/05 07:21:16;;;;;;;11.27;9.17;;;;;;;2.36;100.00;102057.84;5079873;28;20491;-70
2023/02/05 07:23:43;;;;;;;12.70;10.20;;;;;;;2.48;100.00;102058.38;5080121;28;20433;-71
2023/02/05 07:26:11;;;;;;;18.80;10.73;;;;;;;2.52;100.00;102058.28;5076995;28;20477;-73
2023/02/05 07:28:39;;;;;;;15.63;11.03;;;;;;;2.11;100.00;102057.66;5078996;28;20479;-71
2023/02/05 07:31:07;;;;;;;14.90;10.70;;;;;;;1.83;100.00;102055.75;5078943;28;20538;-71
2023/02/05 07:33:35;;;;;;;14.47;10.50;;;;;;;1.92;100.00;102066.97;5074677;28;20480;-72
2023/02/05 07:36:02;;;;;;;13.97;9.17;;;;;;;2.02;100.00;102064.03;5078165;28;20473;-71
2023/02/05 07:38:29;;;;;;;16.43;11.03;;;;;;;1.91;100.00;102071.38;5080013;28;20456;-71
2023/02/05 07:40:55;;;;;;;18.47;11.40;;;;;;;1.81;100.00;102070.75;5072041;28;20818;-71
2023/02/05 07:43:22;;;;;;;15.40;10.13;;;;;;;1.74;100.00;102077.09;5078478;28;20516;-71
2023/02/05 07:45:57;;;;;;;17.00;11.33;;;;;;;2.00;100.00;102084.31;5075423;28;20571;-72
2023/02/05 07:48:23;;;;;;;15.17;11.30;;;;;;;1.81;100.00;102078.66;5070645;28;20459;-72
2023/02/05 07:50:50;;;;;;;25.03;12.57;;;;;;;1.85;100.00;102066.25;5078691;28;20491;-73
2023/02/05 07:53:17;;;;;;;22.10;15.10;;;;;;;1.66;100.00;102071.97;5072067;28;20483;-72
2023/02/05 07:55:43;;;;;;;21.17;15.00;;;;;;;1.86;100.00;102074.13;5077953;28;20559;-72
2023/02/05 07:58:10;;;;;;;21.03;11.80;;;;;;;1.80;100.00;102073.41;5072324;28;20464;-71
2023/02/05 08:00:37;;;;;;;264.80;124.63;;;;;;;1.85;100.00;102067.09;5080320;28;20476;-73
2023/02/05 08:03:05;;;;;;;28.50;16.80;;;;;;;1.84;100.00;102065.41;5079229;28;20468;-72
2023/02/05 08:05:32;;;;;;;18.03;12.23;;;;;;;1.62;100.00;102066.84;5088705;28;20479;-73
2023/02/05 08:07:58;;;;;;;23.33;14.33;;;;;;;1.81;100.00;102059.34;5085001;28;20444;-73
2023/02/05 08:10:25;;;;;;;21.10;13.77;;;;;;;1.72;100.00;102065.72;5079711;28;20459;-71
2023/02/05 08:12:52;;;;;;;18.57;14.20;;;;;;;1.93;100.00;102059.00;5082928;28;20981;-71
2023/02/05 08:15:19;;;;;;;19.20;12.70;;;;;;;2.09;100.00;102064.75;5086057;28;20456;-73
2023/02/05 08:17:46;;;;;;;19.80;13.67;;;;;;;2.13;100.00;102065.53;5091175;28;20520;-72
2023/02/05 08:20:14;;;;;;;25.00;13.07;;;;;;;2.15;100.00;102059.28;5079386;28;20455;-72
2023/02/05 08:22:44;;;;;;;27.00;14.03;;;;;;;2.04;100.00;102054.31;5083568;28;20540;-72
2023/02/05 08:25:13;;;;;;;23.40;13.50;;;;;;;2.17;100.00;102060.13;5083416;28;20494;-73
2023/02/05 08:27:41;;;;;;;25.77;14.03;;;;;;;2.22;100.00;102060.88;5083755;28;20448;-72
2023/02/05 08:30:10;;;;;;;23.40;13.90;;;;;;;2.39;100.00;102060.38;5086869;28;20464;-73
2023/02/05 08:32:40;;;;;;;25.53;14.50;;;;;;;2.66;100.00;102056.97;5088719;28;20483;-73
2023/02/05 08:35:07;;;;;;;22.77;13.33;;;;;;;2.88;100.00;102055.44;5087678;28;20471;-72
2023/02/05 08:37:35;;;;;;;21.23;13.83;;;;;;;2.86;100.00;102057.25;5093125;28;20494;-71
2023/02/05 08:40:02;;;;;;;23.60;12.53;;;;;;;2.72;100.00;102056.81;5090048;28;20460;-72
2023/02/05 08:42:28;;;;;;;27.73;14.23;;;;;;;2.84;100.00;102059.09;5089449;28;20984;-72
2023/02/05 08:44:57;;;;;;;18.73;14.00;;;;;;;2.95;100.00;102067.56;5091981;28;20490;-72
2023/02/05 08:47:24;;;;;;;24.40;14.60;;;;;;;2.91;100.00;102071.19;5091627;28;20551;-73
2023/02/05 08:49:51;;;;;;;25.33;14.60;;;;;;;2.97;100.00;102062.22;5095109;28;20478;-72
2023/02/05 08:52:17;;;;;;;23.70;14.30;;;;;;;2.92;100.00;102062.38;5089669;28;20472;-72
2023/02/05 08:54:46;;;;;;;43.13;31.13;;;;;;;3.03;100.00;102061.19;5099921;28;20470;-73
2023/02/05 08:57:15;;;;;;;23.10;15.50;;;;;;;3.00;100.00;102059.47;5076428;28;20473;-72
2023/02/05 08:59:41;;;;;;;120.50;84.43;;;;;;;2.91;100.00;102052.69;5073680;28;20460;-73
2023/02/05 09:02:10;;;;;;;32.77;15.33;;;;;;;2.99;100.00;102050.69;5083084;28;20472;-73
2023/02/05 09:04:37;;;;;;;29.00;18.20;;;;;;;2.94;100.00;102054.41;5083364;28;20456;-72
2023/02/05 09:07:03;;;;;;;24.33;15.47;;;;;;;3.16;100.00;102051.94;5083142;28;20539;-73
2023/02/05 09:09:33;;;;;;;34.93;24.80;;;;;;;3.33;100.00;102057.56;5082320;28;20460;-74
2023/02/05 09:12:01;;;;;;;68.83;41.43;;;;;;;3.28;100.00;102061.25;5077955;28;20477;-74
2023/02/05 09:14:34;;;;;;;24.13;15.40;;;;;;;3.34;100.00;102064.56;5075625;28;20457;-73
2023/02/05 09:17:01;;;;;;;25.80;16.43;;;;;;;3.32;100.00;102055.81;5073474;28;20477;-73
2023/02/05 09:19:28;;;;;;;31.47;19.43;;;;;;;3.58;100.00;102062.91;5081560;28;20471;-72
2023/02/05 09:21:55;;;;;;;33.43;18.10;;;;;;;3.66;100.00;102044.13;5083007;28;20995;-72
2023/02/05 09:24:22;;;;;;;41.20;25.33;;;;;;;3.49;100.00;102050.00;5081390;28;20456;-73
2023/02/05 09:26:48;;;;;;;46.53;28.27;;;;;;;3.57;100.00;102052.38;5077096;28;20479;-72
2023/02/05 09:29:16;;;;;;;36.83;18.47;;;;;;;3.61;100.00;102054.03;5082229;28;20513;-73
2023/02/05 09:31:43;;;;;;;40.60;24.53;;;;;;;3.57;100.00;102047.09;5081137;28;20476;-72
2023/02/05 09:34:09;;;;;;;48.10;24.50;;;;;;;3.50;100.00;102048.22;5083369;28;20444;-70
2023/02/05 09:36:36;;;;;;;27.63;17.30;;;;;;;3.37;100.00;102042.47;5081924;28;20503;-73
2023/02/05 09:39:03;;;;;;;28.67;18.33;;;;;;;3.63;100.00;102040.72;5075356;28;20448;-73
2023/02/05 09:41:32;;;;;;;36.37;21.60;;;;;;;3.45;100.00;102043.06;5081900;28;20480;-71
2023/02/05 09:44:04;;;;;;;35.13;23.03;;;;;;;3.84;100.00;102047.09;5082857;28;20480;-73
2023/02/05 09:46:38;;;;;;;38.50;22.27;;;;;;;3.66;100.00;102045.91;5079660;28;20467;-73
2023/02/05 09:49:11;;;;;;;30.00;20.37;;;;;;;3.50;100.00;102037.63;5066354;28;20492;-74
2023/02/05 09:51:40;;;;;;;39.23;19.47;;;;;;;3.52;100.00;102034.00;5071464;28;20515;-73
2023/02/05 09:54:16;;;;;;;32.00;19.10;;;;;;;3.66;100.00;102044.13;5082015;28;20730;-73
2023/02/05 09:56:43;;;;;;;27.63;19.10;;;;;;;3.92;100.00;102037.06;5075312;28;20547;-73
2023/02/05 09:59:14;;;;;;;71.20;51.93;;;;;;;4.17;100.00;102045.03;5072110;28;20448;-73
2023/02/05 10:01:45;;;;;;;35.93;23.60;;;;;;;4.34;100.00;102044.41;5083000;28;21069;-72
2023/02/05 10:04:12;;;;;;;34.30;20.63;;;;;;;4.50;100.00;102045.56;5069371;28;20472;-73
2023/02/05 10:06:58;;;;;;;34.70;21.10;;;;;;;4.19;100.00;102042.31;5065776;28;20465;-73
2023/02/05 10:09:42;;;;;;;68.00;49.00;;;;;;;4.40;100.00;102041.53;5079797;28;20464;-72
2023/02/05 10:12:18;;;;;;;37.97;20.30;;;;;;;4.17;100.00;102044.13;5081936;28;20503;-72
2023/02/05 10:14:51;;;;;;;40.70;22.53;;;;;;;4.22;100.00;102048.38;5078571;28;20443;-73
2023/02/05 10:17:29;;;;;;;32.80;20.70;;;;;;;4.24;100.00;102053.63;5068413;28;20473;-73
2023/02/05 10:20:21;;;;;;;44.97;27.53;;;;;;;3.98;100.00;102050.09;5082057;28;20483;-73
2023/02/05 10:22:55;;;;;;;42.60;26.47;;;;;;;3.98;100.00;102050.09;5074358;28;20627;-73
2023/02/05 10:25:41;;;;;;;44.70;26.70;;;;;;;4.18;100.00;102053.81;5086978;28;20439;-73
2023/02/05 10:28:18;;;;;;;33.97;24.67;;;;;;;4.17;100.00;102054.72;5074706;28;20449;-73
2023/02/05 10:30:49;;;;;;;38.10;22.17;;;;;;;4.21;100.00;102043.97;5071580;28;20506;-71
2023/02/05 10:33:22;;;;;;;46.33;25.23;;;;;;;4.28;100.00;102048.13;5076300;28;20457;-73
2023/02/05 10:35:51;;;;;;;42.03;23.90;;;;;;;4.45;100.00;102044.88;5078626;28;20483;-72
2023/02/05 10:38:22;;;;;;;33.83;21.47;;;;;;;4.58;100.00;102049.72;5081380;28;20519;-73
2023/02/05 10:40:51;;;;;;;36.43;21.93;;;;;;;4.32;100.00;102052.41;5081813;28;20907;-73
2023/02/05 10:43:21;;;;;;;41.47;24.40;;;;;;;4.30;100.00;102046.28;5072665;28;20600;-73
2023/02/05 10:45:48;;;;;;;42.53;25.10;;;;;;;4.26;100.00;102049.97;5080179;28;20468;-72
2023/02/05 10:48:40;;;;;;;38.03;22.03;;;;;;;4.70;100.00;102052.78;5073571;28;20544;-71
2023/02/05 10:51:12;;;;;;;40.83;25.37;;;;;;;4.80;100.00;102050.63;5075855;28;20476;-71
2023/02/05 10:53:39;;;;;;;41.03;24.07;;;;;;;4.76;100.00;102056.13;5077805;28;21068;-72
2023/02/05 10:56:06;;;;;;;40.67;26.97;;;;;;;4.91;100.00;102047.53;5080566;28;20476;-73
2023/02/05 10:58:47;;;;;;;37.67;26.73;;;;;;;5.21;100.00;102055.25;5070518;28;20489;-70
2023/02/05 11:01:15;;;;;;;43.10;26.30;;;;;;;5.50;100.00;102048.72;5075122;28;20507;-72
2023/02/05 11:03:49;;;;;;;41.00;24.57;;;;;;;4.82;100.00;102063.81;5076688;28;20949;-73
2023/02/05 11:06:16;;;;;;;46.37;27.77;;;;;;;5.36;100.00;102067.84;5086188;28;20495;-73
2023/02/05 11:08:44;;;;;;;39.37;24.30;;;;;;;5.98;100.00;102082.13;5080847;28;20462;-73
2023/02/05 11:11:20;;;;;;;48.67;29.20;;;;;;;5.46;100.00;102081.63;5075037;28;20480;-73
2023/02/05 11:13:50;;;;;;;42.40;29.03;;;;;;;6.28;100.00;102083.50;5079050;28;21301;-73
2023/02/05 11:16:17;;;;;;;49.67;27.10;;;;;;;7.02;100.00;102088.13;5079402;28;20481;-72
2023/02/05 11:18:54;;;;;;;40.10;26.07;;;;;;;7.38;100.00;102082.84;5080152;28;20518;-72
2023/02/05 11:21:21;;;;;;;37.47;24.67;;;;;;;7.39;100.00;102086.38;5079080;28;20885;-73
2023/02/05 11:23:54;;;;;;;39.57;25.80;;;;;;;7.26;100.00;102097.59;5081044;28;21102;-73
2023/02/05 11:26:26;;;;;;;35.67;25.80;;;;;;;7.05;100.00;102096.84;5080362;28;20487;-72
2023/02/05 11:28:53;;;;;;;39.13;25.63;;;;;;;6.89;100.00;102095.81;5079128;28;21040;-73